createdAt,value
2016-05-28T00:00:31.782Z,987.74
2016-05-28T00:01:31.785Z,987.72
2016-05-28T00:02:44.507Z,987.77
2016-05-28T00:03:31.775Z,987.77
2016-05-28T00:04:31.793Z,987.77
2016-05-28T00:05:31.780Z,987.76
2016-05-28T00:06:31.783Z,987.76
2016-05-28T00:07:31.785Z,987.76
2016-05-28T00:08:31.789Z,987.81
2016-05-28T00:09:31.807Z,987.8
2016-05-28T00:10:34.825Z,987.77
2016-05-28T00:11:31.813Z,987.79
2016-05-28T00:12:31.815Z,987.8
2016-05-28T00:13:31.818Z,987.79
2016-05-28T00:14:31.821Z,987.78
2016-05-28T00:15:31.823Z,987.74
2016-05-28T00:16:31.826Z,987.75
2016-05-28T00:17:31.828Z,987.79
2016-05-28T00:18:31.815Z,987.79
2016-05-28T00:19:32.772Z,987.83
2016-05-28T00:20:31.837Z,987.75
2016-05-28T00:21:31.839Z,987.73
2016-05-28T00:22:31.842Z,987.7
2016-05-28T00:23:31.845Z,987.7
2016-05-28T00:24:31.848Z,987.7
2016-05-28T00:25:31.850Z,987.71
2016-05-28T00:26:31.852Z,987.68
2016-05-28T00:27:31.856Z,987.65
2016-05-28T00:28:31.858Z,987.66
2016-05-28T00:29:31.861Z,987.64
2016-05-28T00:30:31.864Z,987.66
2016-05-28T00:31:31.866Z,987.67
2016-05-28T00:32:31.869Z,987.6
2016-05-28T00:33:31.872Z,987.62
2016-05-28T00:34:31.874Z,987.63
2016-05-28T00:35:31.877Z,987.62
2016-05-28T00:36:31.880Z,987.58
2016-05-28T00:37:31.883Z,987.59
2016-05-28T00:38:31.885Z,987.59
2016-05-28T00:39:31.888Z,987.55
2016-05-28T00:40:31.890Z,987.53
2016-05-28T00:41:51.099Z,987.52
2016-05-28T00:42:31.896Z,987.51
2016-05-28T00:43:31.899Z,987.5
2016-05-28T00:44:31.901Z,987.53
2016-05-28T00:45:31.904Z,987.53
2016-05-28T00:46:31.907Z,987.53
2016-05-28T00:47:31.926Z,987.56
2016-05-28T00:48:31.912Z,987.56
2016-05-28T00:49:51.136Z,987.52
2016-05-28T00:50:32.105Z,987.53
2016-05-28T00:51:31.920Z,987.53
2016-05-28T00:52:31.923Z,987.48
2016-05-28T00:53:31.925Z,987.48
2016-05-28T00:54:31.928Z,987.45
2016-05-28T00:55:31.947Z,987.48
2016-05-28T00:56:31.933Z,987.45
2016-05-28T00:57:31.937Z,987.45
2016-05-28T00:58:31.939Z,987.45
2016-05-28T00:59:31.941Z,987.48
2016-05-28T01:00:31.945Z,987.46
2016-05-28T01:01:31.947Z,987.49
2016-05-28T01:02:31.949Z,987.52
2016-05-28T01:03:31.952Z,987.52
2016-05-28T01:04:32.018Z,987.54
2016-05-28T01:05:51.179Z,987.57
2016-05-28T01:06:31.960Z,987.55
2016-05-28T01:07:31.979Z,987.61
2016-05-28T01:08:31.966Z,987.63
2016-05-28T01:09:31.969Z,987.66
2016-05-28T01:10:51.192Z,987.68
2016-05-28T01:11:32.082Z,987.68
2016-05-28T01:12:31.976Z,987.7
2016-05-28T01:13:31.995Z,987.74
2016-05-28T01:14:31.998Z,987.76
2016-05-28T01:15:32.000Z,987.72
2016-05-28T01:16:32.004Z,987.71
2016-05-28T01:17:32.006Z,987.74
2016-05-28T01:18:32.009Z,987.7
2016-05-28T01:19:32.011Z,987.72
2016-05-28T01:20:33.436Z,987.73
2016-05-28T01:21:33.423Z,987.75
2016-05-28T01:22:32.003Z,987.75
2016-05-28T01:23:32.022Z,987.79
2016-05-28T01:24:32.025Z,987.75
2016-05-28T01:25:44.761Z,987.75
2016-05-28T01:26:32.030Z,987.71
2016-05-28T01:27:32.032Z,987.7
2016-05-28T01:28:32.036Z,987.62
2016-05-28T01:29:35.039Z,987.64
2016-05-28T01:30:44.775Z,987.63
2016-05-28T01:31:32.044Z,987.67
2016-05-28T01:32:32.046Z,987.66
2016-05-28T01:33:32.049Z,987.65
2016-05-28T01:34:32.052Z,987.67
2016-05-28T01:35:32.054Z,987.64
2016-05-28T01:36:32.057Z,987.58
2016-05-28T01:37:51.265Z,987.59
2016-05-28T01:38:35.124Z,987.58
2016-05-28T01:39:35.127Z,987.57
2016-05-28T01:40:35.129Z,987.57
2016-05-28T01:41:35.133Z,987.55
2016-05-28T01:42:35.135Z,987.54
2016-05-28T01:43:35.138Z,987.54
2016-05-28T01:44:35.141Z,987.46
2016-05-28T01:45:35.143Z,987.42
2016-05-28T01:46:35.146Z,987.44
2016-05-28T01:47:35.149Z,987.41
2016-05-28T01:48:35.151Z,987.42
2016-05-28T01:49:35.154Z,987.43
2016-05-28T01:50:35.157Z,987.44
2016-05-28T01:51:35.159Z,987.41
2016-05-28T01:52:35.162Z,987.45
2016-05-28T01:53:54.370Z,987.44
2016-05-28T01:54:35.167Z,987.41
2016-05-28T01:55:35.170Z,987.44
2016-05-28T01:56:35.173Z,987.38
2016-05-28T01:57:35.176Z,987.35
2016-05-28T01:58:35.178Z,987.38
2016-05-28T01:59:35.181Z,987.34
2016-05-28T02:00:35.184Z,987.41
2016-05-28T02:01:35.186Z,987.42
2016-05-28T02:02:35.189Z,987.41
2016-05-28T02:03:35.191Z,987.45
2016-05-28T02:04:35.585Z,987.47
2016-05-28T02:05:35.197Z,987.49
2016-05-28T02:06:54.406Z,987.47
2016-05-28T02:07:35.203Z,987.49
2016-05-28T02:08:35.205Z,987.51
2016-05-28T02:09:35.208Z,987.52
2016-05-28T02:10:35.227Z,987.54
2016-05-28T02:11:35.214Z,987.6
2016-05-28T02:12:35.216Z,987.63
2016-05-28T02:13:35.234Z,987.66
2016-05-28T02:14:54.443Z,987.67
2016-05-28T02:15:41.474Z,987.68
2016-05-28T02:16:41.477Z,987.68
2016-05-28T02:17:41.479Z,987.71
2016-05-28T02:18:41.482Z,987.72
2016-05-28T02:19:41.890Z,987.71
2016-05-28T02:20:41.504Z,987.73
2016-05-28T02:22:00.695Z,987.77
2016-05-28T02:22:41.492Z,987.78
2016-05-28T02:23:41.512Z,987.79
2016-05-28T02:24:41.514Z,987.83
2016-05-28T02:25:41.501Z,987.89
2016-05-28T02:26:41.504Z,987.87
2016-05-28T02:27:41.506Z,987.93
2016-05-28T02:28:41.525Z,987.92
2016-05-28T02:29:41.528Z,987.9
2016-05-28T02:30:41.530Z,987.91
2016-05-28T02:32:00.739Z,987.9
2016-05-28T02:32:41.536Z,987.81
2016-05-28T02:33:41.522Z,987.88
2016-05-28T02:34:41.541Z,987.81
2016-05-28T02:35:41.543Z,987.79
2016-05-28T02:36:41.530Z,987.8
2016-05-28T02:37:54.286Z,987.81
2016-05-28T02:38:41.552Z,987.79
2016-05-28T02:39:41.555Z,987.86
2016-05-28T02:40:41.557Z,987.88
2016-05-28T02:41:41.560Z,987.89
2016-05-28T02:42:41.562Z,987.87
2016-05-28T02:43:41.566Z,987.92
2016-05-28T02:44:41.568Z,987.88
2016-05-28T02:45:41.570Z,987.89
2016-05-28T02:46:41.574Z,987.84
2016-05-28T02:47:41.576Z,987.81
2016-05-28T02:48:41.579Z,987.79
2016-05-28T02:49:41.643Z,987.78
2016-05-28T02:50:41.584Z,987.74
2016-05-28T02:51:41.587Z,987.73
2016-05-28T02:52:41.590Z,987.73
2016-05-28T02:53:54.328Z,987.76
2016-05-28T02:54:41.594Z,987.72
2016-05-28T02:55:41.597Z,987.72
2016-05-28T02:56:41.600Z,987.69
2016-05-28T02:57:41.618Z,987.66
2016-05-28T02:58:41.620Z,987.71
2016-05-28T02:59:41.608Z,987.65
2016-05-28T03:00:41.626Z,987.71
2016-05-28T03:01:41.613Z,987.71
2016-05-28T03:02:54.353Z,987.71
2016-05-28T03:03:41.619Z,987.74
2016-05-28T03:04:41.622Z,987.76
2016-05-28T03:05:41.624Z,987.81
2016-05-28T03:06:41.642Z,987.82
2016-05-28T03:07:41.629Z,987.8
2016-05-28T03:08:41.633Z,987.82
2016-05-28T03:09:41.635Z,987.86
2016-05-28T03:10:41.653Z,987.85
2016-05-28T03:11:41.641Z,987.86
2016-05-28T03:12:41.644Z,987.85
2016-05-28T03:13:41.646Z,987.89
2016-05-28T03:14:41.649Z,987.89
2016-05-28T03:15:41.651Z,987.87
2016-05-28T03:16:41.654Z,987.89
2016-05-28T03:17:41.671Z,987.96
2016-05-28T03:18:41.660Z,987.92
2016-05-28T03:19:41.724Z,987.9
2016-05-28T03:20:41.665Z,987.93
2016-05-28T03:21:41.667Z,987.94
2016-05-28T03:22:41.685Z,987.91
2016-05-28T03:23:41.688Z,987.91
2016-05-28T03:24:41.676Z,987.89
2016-05-28T03:25:54.431Z,987.89
2016-05-28T03:26:41.681Z,987.83
2016-05-28T03:27:41.683Z,987.79
2016-05-28T03:28:41.686Z,987.77
2016-05-28T03:29:41.704Z,987.74
2016-05-28T03:30:41.707Z,987.68
2016-05-28T03:31:41.709Z,987.64
2016-05-28T03:32:41.712Z,987.64
2016-05-28T03:33:54.452Z,987.6
2016-05-28T03:34:41.702Z,987.58
2016-05-28T03:35:41.720Z,987.57
2016-05-28T03:36:41.723Z,987.55
2016-05-28T03:37:41.725Z,987.53
2016-05-28T03:38:41.728Z,987.55
2016-05-28T03:39:41.746Z,987.47
2016-05-28T03:40:41.733Z,987.47
2016-05-28T03:41:41.737Z,987.44
2016-05-28T03:42:41.739Z,987.41
2016-05-28T03:43:41.741Z,987.4
2016-05-28T03:45:00.951Z,987.37
2016-05-28T03:45:41.747Z,987.4
2016-05-28T03:46:41.782Z,987.36
2016-05-28T03:47:41.752Z,987.4
2016-05-28T03:48:41.755Z,987.43
2016-05-28T03:49:41.774Z,987.44
2016-05-28T03:50:41.761Z,987.5
2016-05-28T03:51:41.763Z,987.51
2016-05-28T03:52:41.766Z,987.5
2016-05-28T03:53:41.769Z,987.59
2016-05-28T03:54:54.507Z,987.64
2016-05-28T03:55:41.774Z,987.67
2016-05-28T03:56:41.776Z,987.75
2016-05-28T03:57:41.779Z,987.77
2016-05-28T03:58:41.782Z,987.81
2016-05-28T03:59:41.784Z,987.85
2016-05-28T04:00:41.787Z,987.84
2016-05-28T04:01:41.790Z,987.86
2016-05-28T04:02:41.793Z,987.89
2016-05-28T04:03:41.796Z,987.87
2016-05-28T04:04:42.189Z,987.88
2016-05-28T04:05:41.801Z,987.93
2016-05-28T04:06:41.804Z,987.96
2016-05-28T04:07:41.806Z,987.93
2016-05-28T04:08:41.824Z,987.95
2016-05-28T04:09:41.812Z,987.88
2016-05-28T04:10:41.814Z,987.88
2016-05-28T04:12:01.024Z,987.93
2016-05-28T04:12:41.820Z,987.91
2016-05-28T04:13:41.838Z,987.83
2016-05-28T04:14:41.841Z,987.81
2016-05-28T04:15:41.844Z,987.8
2016-05-28T04:16:41.831Z,987.72
2016-05-28T04:17:41.833Z,987.68
2016-05-28T04:18:41.836Z,987.73
2016-05-28T04:19:41.839Z,987.71
2016-05-28T04:20:41.873Z,987.76
2016-05-28T04:21:41.860Z,987.74
2016-05-28T04:22:41.846Z,987.76
2016-05-28T04:23:41.849Z,987.74
2016-05-28T04:24:41.852Z,987.76
2016-05-28T04:25:41.855Z,987.81
2016-05-28T04:26:41.889Z,987.84
2016-05-28T04:27:41.892Z,987.83
2016-05-28T04:28:41.878Z,987.84
2016-05-28T04:29:41.865Z,987.88
2016-05-28T04:30:41.884Z,987.91
2016-05-28T04:31:41.886Z,987.93
2016-05-28T04:32:41.889Z,987.93
2016-05-28T04:33:41.876Z,987.93
2016-05-28T04:34:42.269Z,987.81
2016-05-28T04:35:41.897Z,987.81
2016-05-28T04:36:41.900Z,987.78
2016-05-28T04:37:54.637Z,987.78
2016-05-28T04:38:41.906Z,987.81
2016-05-28T04:39:41.908Z,987.77
2016-05-28T04:40:41.911Z,987.76
2016-05-28T04:41:41.914Z,987.75
2016-05-28T04:42:41.916Z,987.77
2016-05-28T04:43:41.919Z,987.81
2016-05-28T04:44:41.922Z,987.81
2016-05-28T04:45:41.925Z,987.85
2016-05-28T04:46:41.927Z,987.84
2016-05-28T04:47:41.930Z,987.87
2016-05-28T04:48:41.933Z,987.9
2016-05-28T04:49:54.701Z,987.84
2016-05-28T04:50:41.938Z,987.83
2016-05-28T04:51:41.941Z,987.82
2016-05-28T04:52:41.943Z,987.84
2016-05-28T04:53:41.946Z,987.85
2016-05-28T04:54:41.965Z,987.84
2016-05-28T04:55:41.967Z,987.82
2016-05-28T04:56:41.970Z,987.83
2016-05-28T04:57:41.956Z,987.8
2016-05-28T04:58:41.975Z,987.75
2016-05-28T04:59:41.978Z,987.66
2016-05-28T05:00:54.715Z,987.69
2016-05-28T05:01:41.983Z,987.65
2016-05-28T05:02:41.986Z,987.65
2016-05-28T05:03:41.989Z,987.69
2016-05-28T05:04:41.991Z,987.7
2016-05-28T05:05:41.994Z,987.71
2016-05-28T05:06:41.996Z,987.71
2016-05-28T05:07:42.014Z,987.58
2016-05-28T05:08:42.012Z,987.58
2016-05-28T05:09:42.039Z,987.53
2016-05-28T05:10:42.081Z,987.53
2016-05-28T05:11:42.108Z,987.5
2016-05-28T05:12:42.135Z,987.51
2016-05-28T05:13:42.157Z,987.49
2016-05-28T05:14:42.169Z,987.48
2016-05-28T05:15:42.196Z,987.48
2016-05-28T05:16:43.613Z,987.48
2016-05-28T05:17:42.219Z,987.48
2016-05-28T05:18:42.229Z,987.44
2016-05-28T05:19:42.234Z,987.43
2016-05-28T05:20:42.239Z,987.45
2016-05-28T05:21:42.246Z,987.48
2016-05-28T05:22:42.252Z,987.46
2016-05-28T05:23:42.256Z,987.52
2016-05-28T05:24:54.995Z,987.5
2016-05-28T05:25:42.264Z,987.48
2016-05-28T05:26:42.268Z,987.5
2016-05-28T05:27:42.272Z,987.49
2016-05-28T05:28:42.275Z,987.46
2016-05-28T05:29:42.294Z,987.46
2016-05-28T05:30:42.297Z,987.48
2016-05-28T05:31:42.301Z,987.47
2016-05-28T05:32:55.038Z,987.48
2016-05-28T05:33:42.291Z,987.53
2016-05-28T05:34:42.309Z,987.5
2016-05-28T05:35:42.326Z,987.45
2016-05-28T05:36:42.315Z,987.51
2016-05-28T05:37:42.317Z,987.42
2016-05-28T05:38:42.320Z,987.45
2016-05-28T05:39:42.322Z,987.45
2016-05-28T05:40:42.325Z,987.53
2016-05-28T05:41:42.328Z,987.51
2016-05-28T05:42:42.346Z,987.5
2016-05-28T05:43:42.333Z,987.54
2016-05-28T05:44:42.351Z,987.58
2016-05-28T05:45:42.354Z,987.55
2016-05-28T05:46:42.357Z,987.61
2016-05-28T05:47:42.375Z,987.57
2016-05-28T05:48:42.361Z,987.6
2016-05-28T05:49:42.365Z,987.62
2016-05-28T05:50:42.367Z,987.69
2016-05-28T05:51:55.105Z,987.7
2016-05-28T05:52:42.389Z,987.7
2016-05-28T05:53:42.391Z,987.73
2016-05-28T05:54:42.394Z,987.69
2016-05-28T05:55:42.380Z,987.65
2016-05-28T05:56:42.400Z,987.73
2016-05-28T05:57:42.402Z,987.72
2016-05-28T05:58:42.405Z,987.66
2016-05-28T05:59:42.408Z,987.68
2016-05-28T06:00:42.410Z,987.66
2016-05-28T06:01:42.413Z,987.66
2016-05-28T06:02:42.415Z,987.63
2016-05-28T06:03:55.169Z,987.64
2016-05-28T06:04:42.421Z,987.64
2016-05-28T06:05:42.439Z,987.7
2016-05-28T06:06:42.441Z,987.69
2016-05-28T06:07:42.443Z,987.69
2016-05-28T06:08:42.446Z,987.72
2016-05-28T06:09:42.450Z,987.7
2016-05-28T06:10:42.452Z,987.71
2016-05-28T06:11:42.470Z,987.7
2016-05-28T06:12:42.457Z,987.68
2016-05-28T06:13:55.210Z,987.74
2016-05-28T06:14:42.463Z,987.75
2016-05-28T06:15:42.465Z,987.72
2016-05-28T06:16:42.468Z,987.79
2016-05-28T06:17:42.487Z,987.84
2016-05-28T06:18:42.490Z,987.87
2016-05-28T06:19:42.664Z,987.83
2016-05-28T06:20:42.526Z,987.86
2016-05-28T06:21:42.514Z,987.84
2016-05-28T06:22:42.516Z,987.88
2016-05-28T06:23:42.519Z,987.84
2016-05-28T06:24:42.506Z,987.88
2016-05-28T06:25:42.508Z,987.85
2016-05-28T06:26:42.527Z,987.94
2016-05-28T06:28:01.735Z,987.83
2016-05-28T06:28:42.532Z,987.91
2016-05-28T06:29:42.535Z,987.86
2016-05-28T06:30:42.538Z,987.86
2016-05-28T06:31:42.540Z,987.85
2016-05-28T06:32:42.558Z,987.77
2016-05-28T06:33:42.561Z,987.75
2016-05-28T06:34:42.564Z,987.74
2016-05-28T06:35:42.566Z,987.73
2016-05-28T06:36:42.569Z,987.76
2016-05-28T06:37:42.571Z,987.74
2016-05-28T06:38:42.590Z,987.72
2016-05-28T06:39:42.593Z,987.73
2016-05-28T06:40:42.596Z,987.7
2016-05-28T06:41:42.598Z,987.68
2016-05-28T06:42:42.601Z,987.71
2016-05-28T06:43:55.338Z,987.74
2016-05-28T06:44:42.606Z,987.74
2016-05-28T06:45:42.625Z,987.7
2016-05-28T06:46:42.627Z,987.67
2016-05-28T06:47:42.631Z,987.71
2016-05-28T06:48:42.633Z,987.66
2016-05-28T06:49:42.651Z,987.69
2016-05-28T06:50:42.653Z,987.63
2016-05-28T06:51:42.656Z,987.7
2016-05-28T06:52:42.659Z,987.68
2016-05-28T06:53:42.661Z,987.69
2016-05-28T06:54:42.681Z,987.7
2016-05-28T06:55:42.683Z,987.72
2016-05-28T06:56:42.732Z,987.7
2016-05-28T06:57:42.689Z,987.7
2016-05-28T06:58:42.692Z,987.65
2016-05-28T06:59:42.709Z,987.68
2016-05-28T07:00:42.711Z,987.78
2016-05-28T07:01:42.714Z,987.79
2016-05-28T07:02:42.717Z,987.75
2016-05-28T07:03:42.719Z,987.76
2016-05-28T07:04:43.285Z,987.74
2016-05-28T07:05:42.741Z,987.72
2016-05-28T07:06:42.759Z,987.69
2016-05-28T07:07:42.746Z,987.66
2016-05-28T07:08:42.765Z,987.62
2016-05-28T07:09:42.768Z,987.61
2016-05-28T07:10:42.770Z,987.61
2016-05-28T07:12:01.978Z,987.56
2016-05-28T07:12:42.775Z,987.48
2016-05-28T07:13:42.778Z,987.54
2016-05-28T07:14:42.796Z,987.49
2016-05-28T07:15:42.798Z,987.56
2016-05-28T07:16:42.802Z,987.52
2016-05-28T07:17:42.804Z,987.5
2016-05-28T07:18:42.807Z,987.61
2016-05-28T07:19:42.825Z,987.61
2016-05-28T07:20:42.844Z,987.61
2016-05-28T07:21:42.830Z,987.66
2016-05-28T07:23:02.039Z,987.64
2016-05-28T07:23:42.852Z,987.67
2016-05-28T07:24:42.855Z,987.61
2016-05-28T07:25:42.858Z,987.59
2016-05-28T07:27:02.066Z,987.62
2016-05-28T07:27:42.863Z,987.63
2016-05-28T07:28:42.880Z,987.66
2016-05-28T07:29:42.884Z,987.61
2016-05-28T07:30:42.886Z,987.66
2016-05-28T07:31:42.888Z,987.66
2016-05-28T07:32:42.908Z,987.63
2016-05-28T07:33:42.911Z,987.63
2016-05-28T07:35:02.118Z,987.67
2016-05-28T07:35:42.930Z,987.65
2016-05-28T07:36:42.933Z,987.68
2016-05-28T07:37:42.936Z,987.68
2016-05-28T07:38:42.954Z,987.68
2016-05-28T07:39:42.957Z,987.66
2016-05-28T07:40:42.960Z,987.64
2016-05-28T07:41:42.963Z,987.62
2016-05-28T07:42:42.981Z,987.65
2016-05-28T07:44:02.190Z,987.65
2016-05-28T07:44:43.002Z,987.61
2016-05-28T07:45:42.989Z,987.63
2016-05-28T07:46:43.007Z,987.6
2016-05-28T07:47:43.009Z,987.56
2016-05-28T07:48:43.012Z,987.57
2016-05-28T07:49:55.765Z,987.55
2016-05-28T07:50:43.034Z,987.51
2016-05-28T07:51:43.036Z,987.55
2016-05-28T07:52:43.039Z,987.51
2016-05-28T07:53:43.042Z,987.5
2016-05-28T07:54:55.794Z,987.45
2016-05-28T07:55:43.063Z,987.46
2016-05-28T07:56:43.066Z,987.46
2016-05-28T07:57:43.084Z,987.43
2016-05-28T07:58:43.087Z,987.44
2016-05-28T07:59:43.105Z,987.43
2016-05-28T08:00:43.091Z,987.45
2016-05-28T08:01:43.095Z,987.44
2016-05-28T08:02:43.113Z,987.42
2016-05-28T08:03:43.116Z,987.4
2016-05-28T08:04:55.852Z,987.41
2016-05-28T08:05:43.121Z,987.41
2016-05-28T08:06:43.139Z,987.4
2016-05-28T08:07:43.141Z,987.4
2016-05-28T08:08:43.144Z,987.42
2016-05-28T08:09:43.163Z,987.43
2016-05-28T08:10:43.166Z,987.39
2016-05-28T08:11:43.168Z,987.46
2016-05-28T08:12:44.749Z,987.47
2016-05-28T08:13:43.190Z,987.45
2016-05-28T08:14:43.192Z,987.46
2016-05-28T08:15:43.226Z,987.46
2016-05-28T08:17:02.401Z,987.43
2016-05-28T08:17:43.200Z,987.48
2016-05-28T08:18:43.234Z,987.48
2016-05-28T08:19:43.237Z,987.47
2016-05-28T08:20:43.223Z,987.49
2016-05-28T08:21:43.227Z,987.48
2016-05-28T08:22:43.245Z,987.49
2016-05-28T08:23:43.247Z,987.47
2016-05-28T08:24:43.250Z,987.47
2016-05-28T08:25:43.269Z,987.55
2016-05-28T08:26:43.271Z,987.5
2016-05-28T08:27:43.275Z,987.48
2016-05-28T08:28:43.277Z,987.5
2016-05-28T08:29:43.280Z,987.52
2016-05-28T08:30:43.283Z,987.51
2016-05-28T08:31:43.300Z,987.49
2016-05-28T08:32:43.303Z,987.5
2016-05-28T08:33:43.305Z,987.52
2016-05-28T08:34:43.402Z,987.56
2016-05-28T08:35:43.327Z,987.58
2016-05-28T08:36:43.329Z,987.58
2016-05-28T08:37:43.332Z,987.6
2016-05-28T08:38:43.335Z,987.62
2016-05-28T08:39:43.353Z,987.62
2016-05-28T08:40:43.356Z,987.65
2016-05-28T08:41:43.358Z,987.63
2016-05-28T08:42:43.361Z,987.62
2016-05-28T08:43:43.379Z,987.63
2016-05-28T08:44:43.398Z,987.62
2016-05-28T08:45:43.401Z,987.6
2016-05-28T08:46:43.404Z,987.56
2016-05-28T08:47:43.406Z,987.52
2016-05-28T08:48:43.409Z,987.56
2016-05-28T08:49:43.427Z,987.54
2016-05-28T08:50:43.430Z,987.53
2016-05-28T08:51:43.432Z,987.57
2016-05-28T08:52:43.434Z,987.56
2016-05-28T08:53:43.454Z,987.5
2016-05-28T08:54:43.456Z,987.56
2016-05-28T08:55:43.490Z,987.47
2016-05-28T08:56:43.493Z,987.48
2016-05-28T08:57:43.480Z,987.48
2016-05-28T08:58:43.497Z,987.47
2016-05-28T08:59:43.500Z,987.45
2016-05-28T09:00:43.503Z,987.44
2016-05-28T09:01:43.522Z,987.4
2016-05-28T09:02:43.524Z,987.41
2016-05-28T09:03:43.543Z,987.41
2016-05-28T09:04:43.561Z,987.42
2016-05-28T09:05:43.564Z,987.39
2016-05-28T09:06:43.550Z,987.35
2016-05-28T09:07:43.569Z,987.34
2016-05-28T09:08:43.587Z,987.33
2016-05-28T09:09:43.590Z,987.3
2016-05-28T09:10:43.593Z,987.26
2016-05-28T09:11:43.611Z,987.22
2016-05-28T09:12:43.613Z,987.21
2016-05-28T09:13:43.616Z,987.18
2016-05-28T09:14:43.635Z,987.15
2016-05-28T09:15:43.638Z,987.14
2016-05-28T09:16:43.656Z,987.11
2016-05-28T09:17:43.659Z,987.05
2016-05-28T09:18:43.662Z,987.08
2016-05-28T09:19:43.679Z,987.01
2016-05-28T09:20:43.682Z,987.02
2016-05-28T09:21:43.684Z,986.98
2016-05-28T09:22:43.704Z,987.01
2016-05-28T09:23:43.706Z,987.02
2016-05-28T09:24:43.724Z,987.01
2016-05-28T09:25:43.727Z,986.96
2016-05-28T09:26:43.730Z,986.98
2016-05-28T09:27:43.748Z,986.94
2016-05-28T09:28:43.750Z,986.95
2016-05-28T09:29:43.769Z,986.98
2016-05-28T09:30:43.772Z,986.99
2016-05-28T09:31:43.775Z,986.99
2016-05-28T09:32:43.778Z,986.96
2016-05-28T09:33:43.794Z,986.93
2016-05-28T09:34:43.813Z,987.01
2016-05-28T09:35:43.800Z,986.99
2016-05-28T09:36:43.819Z,986.95
2016-05-28T09:37:43.837Z,986.96
2016-05-28T09:38:43.840Z,986.94
2016-05-28T09:39:43.843Z,986.92
2016-05-28T09:40:43.860Z,986.96
2016-05-28T09:41:43.864Z,986.99
2016-05-28T09:42:43.866Z,986.96
2016-05-28T09:43:43.869Z,986.94
2016-05-28T09:44:43.887Z,986.92
2016-05-28T09:45:43.890Z,986.94
2016-05-28T09:46:43.908Z,986.92
2016-05-28T09:47:43.911Z,986.91
2016-05-28T09:48:43.914Z,986.9
2016-05-28T09:49:43.916Z,986.87
2016-05-28T09:50:43.934Z,986.88
2016-05-28T09:51:45.062Z,986.89
2016-05-28T09:52:43.940Z,986.9
2016-05-28T09:53:43.942Z,986.87
2016-05-28T09:54:43.945Z,986.9
2016-05-28T09:55:43.964Z,986.85
2016-05-28T09:56:44.045Z,986.88
2016-05-28T09:57:43.984Z,986.82
2016-05-28T09:58:43.987Z,986.85
2016-05-28T09:59:43.990Z,986.87
2016-05-28T10:00:43.993Z,986.9
2016-05-28T10:01:44.042Z,986.95
2016-05-28T10:02:44.013Z,986.96
2016-05-28T10:03:44.032Z,986.97
2016-05-28T10:04:44.098Z,987
2016-05-28T10:05:44.038Z,987.03
2016-05-28T10:06:45.321Z,987.07
2016-05-28T10:07:44.059Z,987.07
2016-05-28T10:08:44.061Z,987.07
2016-05-28T10:09:44.080Z,987.02
2016-05-28T10:10:44.083Z,987.01
2016-05-28T10:11:44.414Z,987
2016-05-28T10:12:44.088Z,986.97
2016-05-28T10:13:44.105Z,986.92
2016-05-28T10:14:44.108Z,986.93
2016-05-28T10:15:44.111Z,986.88
2016-05-28T10:16:44.130Z,986.94
2016-05-28T10:17:44.149Z,986.98
2016-05-28T10:18:44.135Z,986.96
2016-05-28T10:19:44.544Z,987
2016-05-28T10:20:44.156Z,986.98
2016-05-28T10:21:44.159Z,986.98
2016-05-28T10:22:44.162Z,987.02
2016-05-28T10:23:44.180Z,987.01
2016-05-28T10:24:44.245Z,987
2016-05-28T10:25:44.184Z,987
2016-05-28T10:26:44.204Z,986.97
2016-05-28T10:27:44.206Z,987
2016-05-28T10:28:44.225Z,986.95
2016-05-28T10:29:44.227Z,986.96
2016-05-28T10:30:44.230Z,986.94
2016-05-28T10:31:44.248Z,986.97
2016-05-28T10:32:44.251Z,986.93
2016-05-28T10:33:44.253Z,986.93
2016-05-28T10:34:44.256Z,986.91
2016-05-28T10:35:44.275Z,986.92
2016-05-28T10:36:44.277Z,986.98
2016-05-28T10:37:44.280Z,986.99
2016-05-28T10:38:44.297Z,986.95
2016-05-28T10:39:44.300Z,986.91
2016-05-28T10:40:44.303Z,986.89
2016-05-28T10:41:44.322Z,986.83
2016-05-28T10:42:44.340Z,986.8
2016-05-28T10:43:44.343Z,986.75
2016-05-28T10:44:44.346Z,986.68
2016-05-28T10:45:44.348Z,986.71
2016-05-28T10:46:44.351Z,986.76
2016-05-28T10:47:44.369Z,986.72
2016-05-28T10:48:44.371Z,986.71
2016-05-28T10:49:44.406Z,986.82
2016-05-28T10:50:44.409Z,986.87
2016-05-28T10:51:44.396Z,986.79
2016-05-28T10:52:44.414Z,986.74
2016-05-28T10:53:44.401Z,986.73
2016-05-28T10:54:44.420Z,986.78
2016-05-28T10:55:44.532Z,986.8
2016-05-28T10:56:44.425Z,986.91
2016-05-28T10:57:44.459Z,986.95
2016-05-28T10:58:44.446Z,986.96
2016-05-28T10:59:44.448Z,987.02
2016-05-28T11:00:44.467Z,987.03
2016-05-28T11:01:44.469Z,987.01
2016-05-28T11:02:44.473Z,986.99
2016-05-28T11:03:44.490Z,986.98
2016-05-28T11:04:44.493Z,986.94
2016-05-28T11:05:44.636Z,986.9
2016-05-28T11:06:44.514Z,986.95
2016-05-28T11:07:44.517Z,986.98
2016-05-28T11:08:44.519Z,986.97
2016-05-28T11:09:44.538Z,987.01
2016-05-28T11:10:44.541Z,986.95
2016-05-28T11:11:44.543Z,986.92
2016-05-28T11:12:44.561Z,986.91
2016-05-28T11:13:44.564Z,986.88
2016-05-28T11:14:44.567Z,986.84
2016-05-28T11:15:44.569Z,986.89
2016-05-28T11:16:44.588Z,986.78
2016-05-28T11:17:44.591Z,986.76
2016-05-28T11:18:44.610Z,986.96
2016-05-28T11:19:44.612Z,986.88
2016-05-28T11:20:44.615Z,986.92
2016-05-28T11:21:44.633Z,986.98
2016-05-28T11:22:44.636Z,986.96
2016-05-28T11:23:44.653Z,986.89
2016-05-28T11:24:44.656Z,986.84
2016-05-28T11:25:44.659Z,986.74
2016-05-28T11:26:44.677Z,986.7
2016-05-28T11:27:44.679Z,986.69
2016-05-28T11:28:44.682Z,986.67
2016-05-28T11:29:44.701Z,986.62
2016-05-28T11:30:44.704Z,986.71
2016-05-28T11:31:44.706Z,986.68
2016-05-28T11:32:44.709Z,986.65
2016-05-28T11:33:44.728Z,986.67
2016-05-28T11:34:44.731Z,986.69
2016-05-28T11:35:44.748Z,986.68
2016-05-28T11:36:44.750Z,986.64
2016-05-28T11:37:44.753Z,986.61
2016-05-28T11:38:44.756Z,986.52
2016-05-28T11:39:44.775Z,986.51
2016-05-28T11:40:44.777Z,986.44
2016-05-28T11:41:44.781Z,986.45
2016-05-28T11:42:44.799Z,986.48
2016-05-28T11:43:44.816Z,986.39
2016-05-28T11:44:44.819Z,986.45
2016-05-28T11:45:44.822Z,986.51
2016-05-28T11:46:44.825Z,986.55
2016-05-28T11:47:44.844Z,986.52
2016-05-28T11:48:44.846Z,986.46
2016-05-28T11:49:44.848Z,986.43
2016-05-28T11:50:44.852Z,986.45
2016-05-28T11:51:44.869Z,986.54
2016-05-28T11:52:44.872Z,986.53
2016-05-28T11:53:47.890Z,986.48
2016-05-28T11:54:44.893Z,986.47
2016-05-28T11:55:44.896Z,986.32
2016-05-28T11:56:44.899Z,986.4
2016-05-28T11:57:44.917Z,986.32
2016-05-28T11:58:44.920Z,986.33
2016-05-28T11:59:44.922Z,986.31
2016-05-28T12:00:44.941Z,986.31
2016-05-28T12:01:44.943Z,986.3
2016-05-28T12:02:44.946Z,986.26
2016-05-28T12:03:44.948Z,986.26
2016-05-28T12:04:44.968Z,986.26
2016-05-28T12:05:44.970Z,986.21
2016-05-28T12:06:44.972Z,986.19
2016-05-28T12:07:44.992Z,986.09
2016-05-28T12:08:44.993Z,986.04
2016-05-28T12:09:44.997Z,986.04
2016-05-28T12:10:45.015Z,986.02
2016-05-28T12:11:45.017Z,986
2016-05-28T12:12:45.019Z,985.95
2016-05-28T12:13:45.023Z,985.94
2016-05-28T12:14:45.041Z,985.98
2016-05-28T12:15:45.044Z,986
2016-05-28T12:16:45.046Z,986.01
2016-05-28T12:17:45.049Z,985.99
2016-05-28T12:18:45.067Z,986
2016-05-28T12:19:45.070Z,985.94
2016-05-28T12:20:45.072Z,985.9
2016-05-28T12:21:45.091Z,985.89
2016-05-28T12:22:45.093Z,985.9
2016-05-28T12:23:45.112Z,985.96
2016-05-28T12:24:45.115Z,985.94
2016-05-28T12:25:45.118Z,985.99
2016-05-28T12:26:45.120Z,986.03
2016-05-28T12:27:45.123Z,986.05
2016-05-28T12:28:45.125Z,986.04
2016-05-28T12:29:45.144Z,986.07
2016-05-28T12:30:45.146Z,986.09
2016-05-28T12:31:45.164Z,986.05